sensor_id;sensor_type;location;lat;lon;timestamp;P1;durP1;ratioP1;P2;durP2;ratioP2
31770;SDS011;18343;50.152;8.182;2023-03-01T00:01:29;25.88;;;13.50;;
31770;SDS011;18343;50.152;8.182;2023-03-01T00:04:15;24.30;;;13.20;;
31770;SDS011;18343;50.152;8.182;2023-03-01T00:07:00;25.98;;;14.13;;
31770;SDS011;18343;50.152;8.182;2023-03-01T00:09:48;29.25;;;14.85;;
31770;SDS011;18343;50.152;8.182;2023-03-01T00:13:02;26.13;;;13.68;;
31770;SDS011;18343;50.152;8.182;2023-03-01T00:19:06;26.92;;;14.10;;
31770;SDS011;18343;50.152;8.182;2023-03-01T00:21:54;30.08;;;14.73;;
31770;SDS011;18343;50.152;8.182;2023-03-01T00:24:40;24.80;;;14.30;;
31770;SDS011;18343;50.152;8.182;2023-03-01T00:27:25;24.15;;;13.82;;
31770;SDS011;18343;50.152;8.182;2023-03-01T00:30:10;30.88;;;15.48;;
31770;SDS011;18343;50.152;8.182;2023-03-01T00:32:55;28.63;;;14.55;;
31770;SDS011;18343;50.152;8.182;2023-03-01T00:35:40;28.40;;;13.90;;
31770;SDS011;18343;50.152;8.182;2023-03-01T00:38:24;24.65;;;14.02;;
31770;SDS011;18343;50.152;8.182;2023-03-01T00:41:11;28.27;;;14.77;;
31770;SDS011;18343;50.152;8.182;2023-03-01T00:43:58;26.23;;;14.50;;
31770;SDS011;18343;50.152;8.182;2023-03-01T00:46:43;32.13;;;15.38;;
31770;SDS011;18343;50.152;8.182;2023-03-01T00:49:32;25.98;;;15.18;;
31770;SDS011;18343;50.152;8.182;2023-03-01T00:52:16;30.30;;;15.75;;
31770;SDS011;18343;50.152;8.182;2023-03-01T00:55:01;26.35;;;14.13;;
31770;SDS011;18343;50.152;8.182;2023-03-01T00:57:48;32.25;;;14.30;;
31770;SDS011;18343;50.152;8.182;2023-03-01T01:00:32;29.23;;;14.73;;
31770;SDS011;18343;50.152;8.182;2023-03-01T01:03:21;31.80;;;14.70;;
31770;SDS011;18343;50.152;8.182;2023-03-01T01:06:06;27.60;;;14.00;;
31770;SDS011;18343;50.152;8.182;2023-03-01T01:09:02;32.45;;;14.93;;
31770;SDS011;18343;50.152;8.182;2023-03-01T01:11:48;27.90;;;14.02;;
31770;SDS011;18343;50.152;8.182;2023-03-01T01:14:50;28.50;;;14.57;;
31770;SDS011;18343;50.152;8.182;2023-03-01T01:17:35;33.35;;;14.65;;
31770;SDS011;18343;50.152;8.182;2023-03-01T01:20:19;25.92;;;13.48;;
31770;SDS011;18343;50.152;8.182;2023-03-01T01:23:07;37.42;;;15.30;;
31770;SDS011;18343;50.152;8.182;2023-03-01T01:25:52;27.83;;;15.07;;
31770;SDS011;18343;50.152;8.182;2023-03-01T01:28:37;28.80;;;14.77;;
31770;SDS011;18343;50.152;8.182;2023-03-01T01:31:29;30.65;;;13.27;;
31770;SDS011;18343;50.152;8.182;2023-03-01T01:34:15;25.17;;;14.15;;
31770;SDS011;18343;50.152;8.182;2023-03-01T01:37:02;30.40;;;15.40;;
31770;SDS011;18343;50.152;8.182;2023-03-01T01:39:47;27.00;;;14.77;;
31770;SDS011;18343;50.152;8.182;2023-03-01T01:42:31;31.02;;;15.88;;
31770;SDS011;18343;50.152;8.182;2023-03-01T01:45:24;26.52;;;14.73;;
31770;SDS011;18343;50.152;8.182;2023-03-01T01:48:16;26.08;;;14.52;;
31770;SDS011;18343;50.152;8.182;2023-03-01T01:51:09;26.17;;;14.07;;
31770;SDS011;18343;50.152;8.182;2023-03-01T01:54:01;27.25;;;14.75;;
31770;SDS011;18343;50.152;8.182;2023-03-01T01:56:50;34.20;;;15.15;;
31770;SDS011;18343;50.152;8.182;2023-03-01T01:59:40;28.98;;;15.57;;
31770;SDS011;18343;50.152;8.182;2023-03-01T02:02:33;27.65;;;14.63;;
31770;SDS011;18343;50.152;8.182;2023-03-01T02:05:26;31.15;;;14.85;;
31770;SDS011;18343;50.152;8.182;2023-03-01T02:08:20;25.50;;;13.00;;
31770;SDS011;18343;50.152;8.182;2023-03-01T02:11:08;26.90;;;12.52;;
31770;SDS011;18343;50.152;8.182;2023-03-01T02:13:56;25.00;;;13.73;;
31770;SDS011;18343;50.152;8.182;2023-03-01T02:16:41;26.42;;;14.60;;
31770;SDS011;18343;50.152;8.182;2023-03-01T02:19:31;28.70;;;14.68;;
31770;SDS011;18343;50.152;8.182;2023-03-01T02:22:34;28.05;;;14.80;;
31770;SDS011;18343;50.152;8.182;2023-03-01T02:25:24;29.00;;;15.05;;
31770;SDS011;18343;50.152;8.182;2023-03-01T02:28:30;30.13;;;14.77;;
31770;SDS011;18343;50.152;8.182;2023-03-01T02:31:17;34.05;;;16.52;;
31770;SDS011;18343;50.152;8.182;2023-03-01T02:34:04;28.45;;;15.18;;
31770;SDS011;18343;50.152;8.182;2023-03-01T02:36:51;35.63;;;15.68;;
31770;SDS011;18343;50.152;8.182;2023-03-01T02:39:40;29.60;;;15.85;;
31770;SDS011;18343;50.152;8.182;2023-03-01T02:42:31;26.23;;;14.90;;
31770;SDS011;18343;50.152;8.182;2023-03-01T02:45:26;27.38;;;14.65;;
31770;SDS011;18343;50.152;8.182;2023-03-01T02:48:11;30.08;;;15.73;;
31770;SDS011;18343;50.152;8.182;2023-03-01T02:51:02;29.77;;;14.85;;
31770;SDS011;18343;50.152;8.182;2023-03-01T02:53:54;31.67;;;15.70;;
31770;SDS011;18343;50.152;8.182;2023-03-01T02:56:51;26.15;;;14.13;;
31770;SDS011;18343;50.152;8.182;2023-03-01T02:59:36;30.02;;;14.40;;
31770;SDS011;18343;50.152;8.182;2023-03-01T03:02:24;28.25;;;14.48;;
31770;SDS011;18343;50.152;8.182;2023-03-01T03:05:13;28.08;;;15.00;;
31770;SDS011;18343;50.152;8.182;2023-03-01T03:08:01;28.80;;;14.18;;
31770;SDS011;18343;50.152;8.182;2023-03-01T03:10:47;28.27;;;15.23;;
31770;SDS011;18343;50.152;8.182;2023-03-01T03:13:32;31.95;;;15.30;;
31770;SDS011;18343;50.152;8.182;2023-03-01T03:16:20;26.80;;;15.55;;
31770;SDS011;18343;50.152;8.182;2023-03-01T03:19:06;26.83;;;14.27;;
31770;SDS011;18343;50.152;8.182;2023-03-01T03:21:51;25.13;;;14.40;;
31770;SDS011;18343;50.152;8.182;2023-03-01T03:24:54;26.35;;;14.18;;
31770;SDS011;18343;50.152;8.182;2023-03-01T03:27:39;28.80;;;16.33;;
31770;SDS011;18343;50.152;8.182;2023-03-01T03:30:26;32.25;;;15.85;;
31770;SDS011;18343;50.152;8.182;2023-03-01T03:33:13;27.42;;;14.85;;
31770;SDS011;18343;50.152;8.182;2023-03-01T03:35:59;25.90;;;13.48;;
31770;SDS011;18343;50.152;8.182;2023-03-01T03:38:44;26.55;;;14.07;;
31770;SDS011;18343;50.152;8.182;2023-03-01T03:41:29;25.95;;;13.77;;
31770;SDS011;18343;50.152;8.182;2023-03-01T03:44:14;29.08;;;14.70;;
31770;SDS011;18343;50.152;8.182;2023-03-01T03:46:58;24.45;;;13.70;;
31770;SDS011;18343;50.152;8.182;2023-03-01T03:49:43;25.92;;;13.88;;
31770;SDS011;18343;50.152;8.182;2023-03-01T03:52:29;24.02;;;13.48;;
31770;SDS011;18343;50.152;8.182;2023-03-01T03:55:14;31.00;;;14.20;;
31770;SDS011;18343;50.152;8.182;2023-03-01T03:58:00;29.15;;;15.13;;
31770;SDS011;18343;50.152;8.182;2023-03-01T04:00:47;29.05;;;14.93;;
31770;SDS011;18343;50.152;8.182;2023-03-01T04:06:57;30.08;;;14.45;;
31770;SDS011;18343;50.152;8.182;2023-03-01T04:09:43;30.02;;;15.20;;
31770;SDS011;18343;50.152;8.182;2023-03-01T04:12:27;26.70;;;14.13;;
31770;SDS011;18343;50.152;8.182;2023-03-01T04:15:16;27.45;;;15.63;;
31770;SDS011;18343;50.152;8.182;2023-03-01T04:18:01;28.88;;;15.52;;
31770;SDS011;18343;50.152;8.182;2023-03-01T04:20:47;32.97;;;16.85;;
31770;SDS011;18343;50.152;8.182;2023-03-01T04:23:31;29.58;;;15.40;;
31770;SDS011;18343;50.152;8.182;2023-03-01T04:26:18;29.95;;;15.90;;
31770;SDS011;18343;50.152;8.182;2023-03-01T04:29:06;32.55;;;15.55;;
31770;SDS011;18343;50.152;8.182;2023-03-01T04:32:11;28.38;;;15.48;;
31770;SDS011;18343;50.152;8.182;2023-03-01T04:34:55;34.72;;;16.45;;
31770;SDS011;18343;50.152;8.182;2023-03-01T04:37:41;29.58;;;15.02;;
31770;SDS011;18343;50.152;8.182;2023-03-01T04:40:25;27.88;;;15.05;;
31770;SDS011;18343;50.152;8.182;2023-03-01T04:43:12;30.30;;;14.70;;
31770;SDS011;18343;50.152;8.182;2023-03-01T04:45:59;30.63;;;16.25;;
31770;SDS011;18343;50.152;8.182;2023-03-01T04:48:45;35.25;;;15.60;;
31770;SDS011;18343;50.152;8.182;2023-03-01T04:51:30;29.48;;;15.93;;
31770;SDS011;18343;50.152;8.182;2023-03-01T04:54:32;30.38;;;14.77;;
31770;SDS011;18343;50.152;8.182;2023-03-01T04:57:18;28.25;;;14.88;;
31770;SDS011;18343;50.152;8.182;2023-03-01T05:00:05;31.63;;;15.15;;
31770;SDS011;18343;50.152;8.182;2023-03-01T05:02:55;35.22;;;15.82;;
31770;SDS011;18343;50.152;8.182;2023-03-01T05:05:41;28.67;;;14.93;;
31770;SDS011;18343;50.152;8.182;2023-03-01T05:08:32;29.48;;;14.77;;
31770;SDS011;18343;50.152;8.182;2023-03-01T05:11:19;28.13;;;15.20;;
31770;SDS011;18343;50.152;8.182;2023-03-01T05:14:05;29.10;;;15.57;;
31770;SDS011;18343;50.152;8.182;2023-03-01T05:17:10;28.85;;;14.35;;
31770;SDS011;18343;50.152;8.182;2023-03-01T05:19:55;29.38;;;15.25;;
31770;SDS011;18343;50.152;8.182;2023-03-01T05:22:39;35.25;;;16.40;;
31770;SDS011;18343;50.152;8.182;2023-03-01T05:25:24;33.28;;;17.42;;
31770;SDS011;18343;50.152;8.182;2023-03-01T05:28:10;35.88;;;17.00;;
31770;SDS011;18343;50.152;8.182;2023-03-01T05:30:55;36.80;;;18.58;;
31770;SDS011;18343;50.152;8.182;2023-03-01T05:33:43;38.85;;;19.20;;
31770;SDS011;18343;50.152;8.182;2023-03-01T05:36:28;44.80;;;19.00;;
31770;SDS011;18343;50.152;8.182;2023-03-01T05:39:22;40.72;;;19.08;;
31770;SDS011;18343;50.152;8.182;2023-03-01T05:42:10;41.58;;;20.98;;
31770;SDS011;18343;50.152;8.182;2023-03-01T05:44:57;43.10;;;20.83;;
31770;SDS011;18343;50.152;8.182;2023-03-01T05:47:53;41.28;;;20.17;;
31770;SDS011;18343;50.152;8.182;2023-03-01T05:50:40;38.55;;;19.13;;
31770;SDS011;18343;50.152;8.182;2023-03-01T05:53:55;35.25;;;19.20;;
31770;SDS011;18343;50.152;8.182;2023-03-01T06:00:45;42.42;;;20.45;;
31770;SDS011;18343;50.152;8.182;2023-03-01T06:11:49;42.80;;;19.65;;
31770;SDS011;18343;50.152;8.182;2023-03-01T06:14:34;38.67;;;19.90;;
31770;SDS011;18343;50.152;8.182;2023-03-01T06:17:18;39.88;;;20.65;;
31770;SDS011;18343;50.152;8.182;2023-03-01T06:20:04;40.95;;;21.40;;
31770;SDS011;18343;50.152;8.182;2023-03-01T06:22:59;41.53;;;20.92;;
31770;SDS011;18343;50.152;8.182;2023-03-01T06:29:02;50.78;;;25.08;;
31770;SDS011;18343;50.152;8.182;2023-03-01T06:32:09;47.47;;;23.90;;
31770;SDS011;18343;50.152;8.182;2023-03-01T06:34:54;51.22;;;23.70;;
31770;SDS011;18343;50.152;8.182;2023-03-01T06:37:39;51.78;;;23.23;;
31770;SDS011;18343;50.152;8.182;2023-03-01T06:40:27;54.00;;;24.02;;
31770;SDS011;18343;50.152;8.182;2023-03-01T06:43:22;60.42;;;25.05;;
31770;SDS011;18343;50.152;8.182;2023-03-01T06:46:07;54.35;;;24.75;;
31770;SDS011;18343;50.152;8.182;2023-03-01T06:48:54;51.65;;;22.73;;
31770;SDS011;18343;50.152;8.182;2023-03-01T06:51:39;52.63;;;22.65;;
31770;SDS011;18343;50.152;8.182;2023-03-01T06:54:33;47.20;;;23.05;;
31770;SDS011;18343;50.152;8.182;2023-03-01T06:57:18;55.70;;;23.20;;
31770;SDS011;18343;50.152;8.182;2023-03-01T07:00:11;40.50;;;21.15;;
31770;SDS011;18343;50.152;8.182;2023-03-01T07:02:59;46.72;;;22.30;;
31770;SDS011;18343;50.152;8.182;2023-03-01T07:05:45;40.42;;;20.52;;
31770;SDS011;18343;50.152;8.182;2023-03-01T07:08:34;42.17;;;20.52;;
31770;SDS011;18343;50.152;8.182;2023-03-01T07:11:21;46.97;;;21.90;;
31770;SDS011;18343;50.152;8.182;2023-03-01T07:14:20;48.28;;;21.33;;
31770;SDS011;18343;50.152;8.182;2023-03-01T07:17:14;48.97;;;22.17;;
31770;SDS011;18343;50.152;8.182;2023-03-01T07:20:12;41.08;;;20.33;;
31770;SDS011;18343;50.152;8.182;2023-03-01T07:22:58;44.25;;;21.90;;
31770;SDS011;18343;50.152;8.182;2023-03-01T07:25:55;45.25;;;21.70;;
31770;SDS011;18343;50.152;8.182;2023-03-01T07:28:39;46.50;;;23.63;;
31770;SDS011;18343;50.152;8.182;2023-03-01T07:31:30;44.83;;;22.48;;
31770;SDS011;18343;50.152;8.182;2023-03-01T07:34:24;44.63;;;22.05;;
31770;SDS011;18343;50.152;8.182;2023-03-01T07:37:13;41.55;;;21.17;;
31770;SDS011;18343;50.152;8.182;2023-03-01T07:40:04;49.00;;;23.15;;
31770;SDS011;18343;50.152;8.182;2023-03-01T07:42:55;46.05;;;21.40;;
31770;SDS011;18343;50.152;8.182;2023-03-01T07:45:40;43.92;;;21.77;;
31770;SDS011;18343;50.152;8.182;2023-03-01T07:48:35;43.45;;;22.35;;
31770;SDS011;18343;50.152;8.182;2023-03-01T07:51:21;42.38;;;22.08;;
31770;SDS011;18343;50.152;8.182;2023-03-01T07:54:06;47.03;;;21.05;;
31770;SDS011;18343;50.152;8.182;2023-03-01T07:56:53;42.25;;;20.13;;
31770;SDS011;18343;50.152;8.182;2023-03-01T07:59:39;41.63;;;19.70;;
31770;SDS011;18343;50.152;8.182;2023-03-01T08:02:30;44.60;;;20.85;;
31770;SDS011;18343;50.152;8.182;2023-03-01T08:05:24;44.97;;;20.92;;
31770;SDS011;18343;50.152;8.182;2023-03-01T08:08:17;51.38;;;22.50;;
31770;SDS011;18343;50.152;8.182;2023-03-01T08:11:26;42.13;;;20.42;;
31770;SDS011;18343;50.152;8.182;2023-03-01T08:14:14;37.05;;;18.98;;
31770;SDS011;18343;50.152;8.182;2023-03-01T08:16:58;37.45;;;19.60;;
31770;SDS011;18343;50.152;8.182;2023-03-01T08:19:49;37.30;;;18.95;;
31770;SDS011;18343;50.152;8.182;2023-03-01T08:22:33;32.45;;;18.15;;
31770;SDS011;18343;50.152;8.182;2023-03-01T08:25:19;36.38;;;18.73;;
31770;SDS011;18343;50.152;8.182;2023-03-01T08:28:04;38.25;;;20.08;;
31770;SDS011;18343;50.152;8.182;2023-03-01T08:30:51;40.90;;;21.63;;
31770;SDS011;18343;50.152;8.182;2023-03-01T08:33:36;36.67;;;18.55;;
31770;SDS011;18343;50.152;8.182;2023-03-01T08:36:23;40.22;;;17.77;;
31770;SDS011;18343;50.152;8.182;2023-03-01T08:39:13;33.60;;;17.77;;
31770;SDS011;18343;50.152;8.182;2023-03-01T08:42:21;34.88;;;18.17;;
31770;SDS011;18343;50.152;8.182;2023-03-01T08:45:14;33.53;;;17.52;;
31770;SDS011;18343;50.152;8.182;2023-03-01T08:48:15;35.03;;;18.77;;
31770;SDS011;18343;50.152;8.182;2023-03-01T08:51:18;34.92;;;18.05;;
31770;SDS011;18343;50.152;8.182;2023-03-01T08:54:09;34.97;;;18.80;;
31770;SDS011;18343;50.152;8.182;2023-03-01T08:56:59;37.22;;;17.60;;
31770;SDS011;18343;50.152;8.182;2023-03-01T09:00:05;36.72;;;17.33;;
31770;SDS011;18343;50.152;8.182;2023-03-01T09:02:54;35.67;;;17.98;;
31770;SDS011;18343;50.152;8.182;2023-03-01T09:05:39;36.95;;;17.38;;
31770;SDS011;18343;50.152;8.182;2023-03-01T09:08:27;37.05;;;18.05;;
31770;SDS011;18343;50.152;8.182;2023-03-01T09:11:18;36.58;;;19.38;;
31770;SDS011;18343;50.152;8.182;2023-03-01T09:14:06;35.38;;;18.02;;
31770;SDS011;18343;50.152;8.182;2023-03-01T09:16:52;34.97;;;18.48;;
31770;SDS011;18343;50.152;8.182;2023-03-01T09:19:39;36.10;;;18.27;;
31770;SDS011;18343;50.152;8.182;2023-03-01T09:22:24;36.83;;;19.25;;
31770;SDS011;18343;50.152;8.182;2023-03-01T09:25:09;33.90;;;17.92;;
31770;SDS011;18343;50.152;8.182;2023-03-01T09:27:54;33.22;;;17.27;;
31770;SDS011;18343;50.152;8.182;2023-03-01T09:30:39;39.88;;;18.85;;
31770;SDS011;18343;50.152;8.182;2023-03-01T09:33:25;39.80;;;18.55;;
31770;SDS011;18343;50.152;8.182;2023-03-01T09:36:21;30.15;;;17.08;;
31770;SDS011;18343;50.152;8.182;2023-03-01T09:39:08;39.63;;;18.70;;
31770;SDS011;18343;50.152;8.182;2023-03-01T09:41:57;33.83;;;17.73;;
31770;SDS011;18343;50.152;8.182;2023-03-01T09:44:54;31.63;;;17.73;;
31770;SDS011;18343;50.152;8.182;2023-03-01T09:47:43;38.35;;;18.73;;
31770;SDS011;18343;50.152;8.182;2023-03-01T09:50:32;37.20;;;18.48;;
31770;SDS011;18343;50.152;8.182;2023-03-01T09:53:23;38.38;;;19.92;;
31770;SDS011;18343;50.152;8.182;2023-03-01T09:56:19;34.75;;;18.08;;
31770;SDS011;18343;50.152;8.182;2023-03-01T09:59:22;33.92;;;17.75;;
31770;SDS011;18343;50.152;8.182;2023-03-01T10:02:26;35.70;;;18.20;;
31770;SDS011;18343;50.152;8.182;2023-03-01T10:05:27;33.95;;;18.45;;
31770;SDS011;18343;50.152;8.182;2023-03-01T10:08:35;31.77;;;17.67;;
31770;SDS011;18343;50.152;8.182;2023-03-01T10:11:35;33.97;;;18.08;;
31770;SDS011;18343;50.152;8.182;2023-03-01T10:17:24;36.47;;;17.52;;
31770;SDS011;18343;50.152;8.182;2023-03-01T10:20:20;32.33;;;17.92;;
31770;SDS011;18343;50.152;8.182;2023-03-01T10:23:13;28.60;;;16.60;;
31770;SDS011;18343;50.152;8.182;2023-03-01T10:26:04;31.33;;;17.67;;
31770;SDS011;18343;50.152;8.182;2023-03-01T10:29:06;36.72;;;17.60;;
31770;SDS011;18343;50.152;8.182;2023-03-01T10:31:55;32.47;;;17.65;;
31770;SDS011;18343;50.152;8.182;2023-03-01T10:34:46;31.52;;;18.67;;
31770;SDS011;18343;50.152;8.182;2023-03-01T10:37:33;39.13;;;17.70;;
31770;SDS011;18343;50.152;8.182;2023-03-01T10:40:31;37.15;;;18.00;;
31770;SDS011;18343;50.152;8.182;2023-03-01T10:43:41;29.05;;;16.73;;
31770;SDS011;18343;50.152;8.182;2023-03-01T10:46:29;31.07;;;17.00;;
31770;SDS011;18343;50.152;8.182;2023-03-01T10:49:21;33.85;;;18.63;;
31770;SDS011;18343;50.152;8.182;2023-03-01T10:52:17;29.45;;;16.95;;
31770;SDS011;18343;50.152;8.182;2023-03-01T10:55:41;31.30;;;16.73;;
31770;SDS011;18343;50.152;8.182;2023-03-01T10:58:27;31.75;;;17.67;;
31770;SDS011;18343;50.152;8.182;2023-03-01T11:01:44;28.15;;;16.25;;
31770;SDS011;18343;50.152;8.182;2023-03-01T11:04:57;34.65;;;17.02;;
31770;SDS011;18343;50.152;8.182;2023-03-01T11:07:48;28.10;;;16.80;;
31770;SDS011;18343;50.152;8.182;2023-03-01T11:10:35;27.95;;;16.23;;
31770;SDS011;18343;50.152;8.182;2023-03-01T11:13:31;30.80;;;16.70;;
31770;SDS011;18343;50.152;8.182;2023-03-01T11:16:16;31.58;;;17.08;;
31770;SDS011;18343;50.152;8.182;2023-03-01T11:19:16;26.50;;;15.30;;
31770;SDS011;18343;50.152;8.182;2023-03-01T11:22:07;26.63;;;16.80;;
31770;SDS011;18343;50.152;8.182;2023-03-01T11:24:57;27.80;;;15.77;;
31770;SDS011;18343;50.152;8.182;2023-03-01T11:27:46;31.52;;;16.33;;
31770;SDS011;18343;50.152;8.182;2023-03-01T11:30:34;32.22;;;16.38;;
31770;SDS011;18343;50.152;8.182;2023-03-01T11:33:30;27.70;;;15.77;;
31770;SDS011;18343;50.152;8.182;2023-03-01T11:36:25;26.95;;;15.23;;
31770;SDS011;18343;50.152;8.182;2023-03-01T11:39:22;22.90;;;14.60;;
31770;SDS011;18343;50.152;8.182;2023-03-01T11:42:15;36.78;;;17.25;;
31770;SDS011;18343;50.152;8.182;2023-03-01T11:45:10;25.60;;;15.00;;
31770;SDS011;18343;50.152;8.182;2023-03-01T11:48:01;28.65;;;16.67;;
31770;SDS011;18343;50.152;8.182;2023-03-01T11:51:13;27.73;;;15.80;;
31770;SDS011;18343;50.152;8.182;2023-03-01T11:54:09;24.60;;;14.07;;
31770;SDS011;18343;50.152;8.182;2023-03-01T11:57:08;23.52;;;14.82;;
31770;SDS011;18343;50.152;8.182;2023-03-01T12:00:11;22.08;;;13.52;;
31770;SDS011;18343;50.152;8.182;2023-03-01T12:03:16;28.20;;;14.43;;
31770;SDS011;18343;50.152;8.182;2023-03-01T12:06:21;25.10;;;14.00;;
31770;SDS011;18343;50.152;8.182;2023-03-01T12:09:23;22.85;;;13.90;;
31770;SDS011;18343;50.152;8.182;2023-03-01T12:12:27;26.25;;;14.02;;
31770;SDS011;18343;50.152;8.182;2023-03-01T12:19:01;24.67;;;14.05;;
31770;SDS011;18343;50.152;8.182;2023-03-01T12:22:15;22.73;;;12.50;;
31770;SDS011;18343;50.152;8.182;2023-03-01T12:25:16;21.25;;;12.35;;
31770;SDS011;18343;50.152;8.182;2023-03-01T12:28:18;19.00;;;10.45;;
31770;SDS011;18343;50.152;8.182;2023-03-01T12:35:01;20.92;;;12.48;;
31770;SDS011;18343;50.152;8.182;2023-03-01T12:38:06;18.23;;;11.15;;
31770;SDS011;18343;50.152;8.182;2023-03-01T12:41:20;16.98;;;10.65;;
31770;SDS011;18343;50.152;8.182;2023-03-01T12:44:36;23.13;;;12.68;;
31770;SDS011;18343;50.152;8.182;2023-03-01T12:47:39;19.27;;;12.13;;
31770;SDS011;18343;50.152;8.182;2023-03-01T12:50:50;18.85;;;11.00;;
31770;SDS011;18343;50.152;8.182;2023-03-01T12:53:41;17.90;;;11.38;;
31770;SDS011;18343;50.152;8.182;2023-03-01T12:56:30;18.30;;;11.25;;
31770;SDS011;18343;50.152;8.182;2023-03-01T12:59:19;19.48;;;11.13;;
31770;SDS011;18343;50.152;8.182;2023-03-01T13:02:13;17.58;;;11.05;;
31770;SDS011;18343;50.152;8.182;2023-03-01T13:05:16;19.30;;;10.95;;
31770;SDS011;18343;50.152;8.182;2023-03-01T13:08:22;16.70;;;10.70;;
31770;SDS011;18343;50.152;8.182;2023-03-01T13:20:29;23.70;;;12.18;;
31770;SDS011;18343;50.152;8.182;2023-03-01T13:23:31;17.33;;;11.52;;
31770;SDS011;18343;50.152;8.182;2023-03-01T13:26:26;21.80;;;13.02;;
31770;SDS011;18343;50.152;8.182;2023-03-01T13:29:25;18.80;;;12.25;;
31770;SDS011;18343;50.152;8.182;2023-03-01T13:32:18;19.25;;;12.20;;
31770;SDS011;18343;50.152;8.182;2023-03-01T13:35:31;24.13;;;12.85;;
31770;SDS011;18343;50.152;8.182;2023-03-01T13:38:36;22.52;;;11.68;;
31770;SDS011;18343;50.152;8.182;2023-03-01T13:41:48;20.83;;;11.30;;
31770;SDS011;18343;50.152;8.182;2023-03-01T13:44:35;23.23;;;12.32;;
31770;SDS011;18343;50.152;8.182;2023-03-01T13:47:21;17.50;;;11.25;;
31770;SDS011;18343;50.152;8.182;2023-03-01T13:50:06;16.52;;;11.57;;
31770;SDS011;18343;50.152;8.182;2023-03-01T13:53:04;16.70;;;10.95;;
31770;SDS011;18343;50.152;8.182;2023-03-01T13:55:51;19.70;;;11.95;;
31770;SDS011;18343;50.152;8.182;2023-03-01T13:58:44;20.25;;;11.65;;
31770;SDS011;18343;50.152;8.182;2023-03-01T14:01:37;19.80;;;12.02;;
31770;SDS011;18343;50.152;8.182;2023-03-01T14:04:27;21.08;;;12.60;;
31770;SDS011;18343;50.152;8.182;2023-03-01T14:07:18;16.17;;;10.07;;
31770;SDS011;18343;50.152;8.182;2023-03-01T14:10:07;18.02;;;10.25;;
31770;SDS011;18343;50.152;8.182;2023-03-01T14:12:58;21.70;;;10.38;;
31770;SDS011;18343;50.152;8.182;2023-03-01T14:16:02;17.33;;;11.07;;
31770;SDS011;18343;50.152;8.182;2023-03-01T14:19:05;15.73;;;10.25;;
31770;SDS011;18343;50.152;8.182;2023-03-01T14:21:59;16.52;;;10.88;;
31770;SDS011;18343;50.152;8.182;2023-03-01T14:24:55;19.73;;;10.65;;
31770;SDS011;18343;50.152;8.182;2023-03-01T14:27:44;19.48;;;12.55;;
31770;SDS011;18343;50.152;8.182;2023-03-01T14:30:41;19.45;;;11.48;;
31770;SDS011;18343;50.152;8.182;2023-03-01T14:33:29;19.15;;;11.35;;
31770;SDS011;18343;50.152;8.182;2023-03-01T14:36:15;16.23;;;11.02;;
31770;SDS011;18343;50.152;8.182;2023-03-01T14:39:15;19.92;;;11.63;;
31770;SDS011;18343;50.152;8.182;2023-03-01T14:42:05;18.05;;;11.52;;
31770;SDS011;18343;50.152;8.182;2023-03-01T14:44:54;19.65;;;11.10;;
31770;SDS011;18343;50.152;8.182;2023-03-01T14:47:41;22.50;;;11.40;;
31770;SDS011;18343;50.152;8.182;2023-03-01T14:50:29;18.48;;;11.20;;
31770;SDS011;18343;50.152;8.182;2023-03-01T14:53:16;15.95;;;10.90;;
31770;SDS011;18343;50.152;8.182;2023-03-01T14:56:05;19.92;;;11.02;;
31770;SDS011;18343;50.152;8.182;2023-03-01T14:58:57;17.00;;;10.40;;
31770;SDS011;18343;50.152;8.182;2023-03-01T15:01:43;20.58;;;12.30;;
31770;SDS011;18343;50.152;8.182;2023-03-01T15:04:29;21.88;;;11.63;;
31770;SDS011;18343;50.152;8.182;2023-03-01T15:07:14;18.65;;;11.40;;
31770;SDS011;18343;50.152;8.182;2023-03-01T15:10:00;21.90;;;11.55;;
31770;SDS011;18343;50.152;8.182;2023-03-01T15:12:47;16.15;;;10.18;;
31770;SDS011;18343;50.152;8.182;2023-03-01T15:15:34;21.13;;;11.65;;
31770;SDS011;18343;50.152;8.182;2023-03-01T15:18:26;21.15;;;11.23;;
31770;SDS011;18343;50.152;8.182;2023-03-01T15:21:15;23.33;;;10.65;;
31770;SDS011;18343;50.152;8.182;2023-03-01T15:24:04;18.25;;;10.90;;
31770;SDS011;18343;50.152;8.182;2023-03-01T15:26:59;18.58;;;10.48;;
31770;SDS011;18343;50.152;8.182;2023-03-01T15:29:50;18.60;;;11.30;;
31770;SDS011;18343;50.152;8.182;2023-03-01T15:32:41;22.75;;;12.00;;
31770;SDS011;18343;50.152;8.182;2023-03-01T15:35:37;18.20;;;11.30;;
31770;SDS011;18343;50.152;8.182;2023-03-01T15:38:27;21.23;;;11.45;;
31770;SDS011;18343;50.152;8.182;2023-03-01T15:41:37;21.35;;;11.23;;
31770;SDS011;18343;50.152;8.182;2023-03-01T15:44:32;19.15;;;10.93;;
31770;SDS011;18343;50.152;8.182;2023-03-01T15:47:23;17.80;;;11.05;;
31770;SDS011;18343;50.152;8.182;2023-03-01T15:50:16;21.38;;;11.43;;
31770;SDS011;18343;50.152;8.182;2023-03-01T15:53:10;18.85;;;10.95;;
31770;SDS011;18343;50.152;8.182;2023-03-01T15:56:01;19.80;;;10.27;;
31770;SDS011;18343;50.152;8.182;2023-03-01T15:58:46;19.30;;;11.75;;
31770;SDS011;18343;50.152;8.182;2023-03-01T16:01:31;18.80;;;11.07;;
31770;SDS011;18343;50.152;8.182;2023-03-01T16:04:19;22.08;;;10.48;;
31770;SDS011;18343;50.152;8.182;2023-03-01T16:07:08;20.73;;;10.88;;
31770;SDS011;18343;50.152;8.182;2023-03-01T16:10:01;22.23;;;11.07;;
31770;SDS011;18343;50.152;8.182;2023-03-01T16:13:03;20.50;;;10.82;;
31770;SDS011;18343;50.152;8.182;2023-03-01T16:15:56;20.15;;;10.40;;
31770;SDS011;18343;50.152;8.182;2023-03-01T16:18:41;21.02;;;10.55;;
31770;SDS011;18343;50.152;8.182;2023-03-01T16:21:27;19.92;;;11.10;;
31770;SDS011;18343;50.152;8.182;2023-03-01T16:24:13;25.55;;;11.85;;
31770;SDS011;18343;50.152;8.182;2023-03-01T16:26:59;18.75;;;11.48;;
31770;SDS011;18343;50.152;8.182;2023-03-01T16:29:44;19.83;;;10.85;;
31770;SDS011;18343;50.152;8.182;2023-03-01T16:32:30;28.38;;;11.38;;
31770;SDS011;18343;50.152;8.182;2023-03-01T16:35:16;18.45;;;10.90;;
31770;SDS011;18343;50.152;8.182;2023-03-01T16:38:04;18.40;;;11.25;;
31770;SDS011;18343;50.152;8.182;2023-03-01T16:40:49;18.17;;;11.02;;
31770;SDS011;18343;50.152;8.182;2023-03-01T16:43:37;18.35;;;10.38;;
31770;SDS011;18343;50.152;8.182;2023-03-01T16:46:22;21.08;;;10.48;;
31770;SDS011;18343;50.152;8.182;2023-03-01T16:49:09;16.42;;;9.55;;
31770;SDS011;18343;50.152;8.182;2023-03-01T16:51:54;17.05;;;9.73;;
31770;SDS011;18343;50.152;8.182;2023-03-01T16:54:38;17.30;;;10.00;;
31770;SDS011;18343;50.152;8.182;2023-03-01T16:57:23;18.33;;;9.38;;
31770;SDS011;18343;50.152;8.182;2023-03-01T17:00:10;16.38;;;9.50;;
31770;SDS011;18343;50.152;8.182;2023-03-01T17:02:57;21.73;;;10.55;;
31770;SDS011;18343;50.152;8.182;2023-03-01T17:05:42;17.55;;;9.38;;
31770;SDS011;18343;50.152;8.182;2023-03-01T17:08:30;21.55;;;9.68;;
31770;SDS011;18343;50.152;8.182;2023-03-01T17:11:19;19.70;;;9.90;;
31770;SDS011;18343;50.152;8.182;2023-03-01T17:14:04;22.02;;;9.65;;
31770;SDS011;18343;50.152;8.182;2023-03-01T17:16:50;19.40;;;10.18;;
31770;SDS011;18343;50.152;8.182;2023-03-01T17:19:35;19.42;;;9.85;;
31770;SDS011;18343;50.152;8.182;2023-03-01T17:22:20;17.02;;;8.98;;